sensor_id;sensor_type;location;lat;lon;timestamp;P1;durP1;ratioP1;P2;durP2;ratioP2
75220;SDS011;63802;53.232;6.570;2024-03-22T00:01:18;33.85;;;14.93;;
75220;SDS011;63802;53.232;6.570;2024-03-22T00:03:49;31.02;;;14.10;;
75220;SDS011;63802;53.232;6.570;2024-03-22T00:06:19;29.30;;;14.35;;
75220;SDS011;63802;53.232;6.570;2024-03-22T00:08:50;31.75;;;15.27;;
75220;SDS011;63802;53.232;6.570;2024-03-22T00:11:21;32.28;;;13.98;;
75220;SDS011;63802;53.232;6.570;2024-03-22T00:14:00;31.70;;;14.90;;
75220;SDS011;63802;53.232;6.570;2024-03-22T00:16:29;27.83;;;13.55;;
75220;SDS011;63802;53.232;6.570;2024-03-22T00:18:55;29.25;;;14.40;;
75220;SDS011;63802;53.232;6.570;2024-03-22T00:21:39;26.42;;;13.82;;
75220;SDS011;63802;53.232;6.570;2024-03-22T00:24:14;32.13;;;13.70;;
75220;SDS011;63802;53.232;6.570;2024-03-22T00:26:43;29.25;;;13.73;;
75220;SDS011;63802;53.232;6.570;2024-03-22T00:29:09;32.95;;;14.60;;
75220;SDS011;63802;53.232;6.570;2024-03-22T00:31:52;31.10;;;13.68;;
75220;SDS011;63802;53.232;6.570;2024-03-22T00:34:40;30.67;;;14.18;;
75220;SDS011;63802;53.232;6.570;2024-03-22T00:37:10;26.85;;;13.65;;
75220;SDS011;63802;53.232;6.570;2024-03-22T00:39:45;30.50;;;14.65;;
75220;SDS011;63802;53.232;6.570;2024-03-22T00:42:20;30.05;;;14.98;;
75220;SDS011;63802;53.232;6.570;2024-03-22T00:44:53;34.03;;;14.70;;
75220;SDS011;63802;53.232;6.570;2024-03-22T00:47:46;30.95;;;14.30;;
75220;SDS011;63802;53.232;6.570;2024-03-22T00:50:45;35.35;;;14.45;;
75220;SDS011;63802;53.232;6.570;2024-03-22T00:53:14;34.67;;;15.65;;
75220;SDS011;63802;53.232;6.570;2024-03-22T00:56:03;36.15;;;15.52;;
75220;SDS011;63802;53.232;6.570;2024-03-22T00:58:39;35.60;;;15.23;;
75220;SDS011;63802;53.232;6.570;2024-03-22T01:01:12;35.97;;;16.08;;
75220;SDS011;63802;53.232;6.570;2024-03-22T01:03:59;33.03;;;16.75;;
75220;SDS011;63802;53.232;6.570;2024-03-22T01:06:25;36.60;;;16.45;;
75220;SDS011;63802;53.232;6.570;2024-03-22T01:08:55;37.60;;;17.73;;
75220;SDS011;63802;53.232;6.570;2024-03-22T01:11:30;31.65;;;15.82;;
75220;SDS011;63802;53.232;6.570;2024-03-22T01:14:01;43.35;;;16.42;;
75220;SDS011;63802;53.232;6.570;2024-03-22T01:16:30;41.03;;;17.25;;
75220;SDS011;63802;53.232;6.570;2024-03-22T01:19:00;36.17;;;17.50;;
75220;SDS011;63802;53.232;6.570;2024-03-22T01:21:44;38.78;;;16.60;;
75220;SDS011;63802;53.232;6.570;2024-03-22T01:24:13;42.47;;;16.77;;
75220;SDS011;63802;53.232;6.570;2024-03-22T01:26:39;39.65;;;17.58;;
75220;SDS011;63802;53.232;6.570;2024-03-22T01:29:30;39.72;;;17.98;;
75220;SDS011;63802;53.232;6.570;2024-03-22T01:31:58;40.20;;;17.98;;
75220;SDS011;63802;53.232;6.570;2024-03-22T01:34:35;44.17;;;17.90;;
75220;SDS011;63802;53.232;6.570;2024-03-22T01:37:17;45.85;;;17.38;;
75220;SDS011;63802;53.232;6.570;2024-03-22T01:39:43;40.40;;;19.63;;
75220;SDS011;63802;53.232;6.570;2024-03-22T01:42:09;41.58;;;18.75;;
75220;SDS011;63802;53.232;6.570;2024-03-22T01:44:35;42.17;;;17.23;;
75220;SDS011;63802;53.232;6.570;2024-03-22T01:47:03;36.50;;;17.00;;
75220;SDS011;63802;53.232;6.570;2024-03-22T01:49:29;42.30;;;20.13;;
75220;SDS011;63802;53.232;6.570;2024-03-22T01:52:01;39.40;;;18.52;;
75220;SDS011;63802;53.232;6.570;2024-03-22T01:54:30;41.78;;;18.13;;
75220;SDS011;63802;53.232;6.570;2024-03-22T01:56:58;48.88;;;19.25;;
75220;SDS011;63802;53.232;6.570;2024-03-22T01:59:26;50.63;;;19.45;;
75220;SDS011;63802;53.232;6.570;2024-03-22T02:01:57;47.85;;;18.67;;
75220;SDS011;63802;53.232;6.570;2024-03-22T02:04:26;46.58;;;19.35;;
75220;SDS011;63802;53.232;6.570;2024-03-22T02:07:15;45.97;;;19.75;;
75220;SDS011;63802;53.232;6.570;2024-03-22T02:09:41;46.10;;;19.80;;
75220;SDS011;63802;53.232;6.570;2024-03-22T02:12:07;48.50;;;19.40;;
75220;SDS011;63802;53.232;6.570;2024-03-22T02:14:37;46.28;;;19.63;;
75220;SDS011;63802;53.232;6.570;2024-03-22T02:17:04;46.30;;;20.42;;
75220;SDS011;63802;53.232;6.570;2024-03-22T02:19:30;43.00;;;18.98;;
75220;SDS011;63802;53.232;6.570;2024-03-22T02:22:05;48.22;;;20.05;;
75220;SDS011;63802;53.232;6.570;2024-03-22T02:24:32;49.08;;;20.17;;
75220;SDS011;63802;53.232;6.570;2024-03-22T02:26:58;47.45;;;20.63;;
75220;SDS011;63802;53.232;6.570;2024-03-22T02:29:24;46.22;;;19.83;;
75220;SDS011;63802;53.232;6.570;2024-03-22T02:31:49;52.55;;;20.85;;
75220;SDS011;63802;53.232;6.570;2024-03-22T02:34:16;52.78;;;19.70;;
75220;SDS011;63802;53.232;6.570;2024-03-22T02:36:45;48.40;;;20.10;;
75220;SDS011;63802;53.232;6.570;2024-03-22T02:39:11;52.35;;;22.30;;
75220;SDS011;63802;53.232;6.570;2024-03-22T02:41:40;52.80;;;20.33;;
75220;SDS011;63802;53.232;6.570;2024-03-22T02:44:07;48.58;;;20.00;;
75220;SDS011;63802;53.232;6.570;2024-03-22T02:46:34;57.67;;;20.75;;
75220;SDS011;63802;53.232;6.570;2024-03-22T02:49:10;52.67;;;20.73;;
75220;SDS011;63802;53.232;6.570;2024-03-22T02:51:36;60.13;;;21.80;;
75220;SDS011;63802;53.232;6.570;2024-03-22T02:54:02;55.00;;;21.30;;
75220;SDS011;63802;53.232;6.570;2024-03-22T02:56:29;52.78;;;19.95;;
75220;SDS011;63802;53.232;6.570;2024-03-22T02:58:58;56.58;;;22.48;;
75220;SDS011;63802;53.232;6.570;2024-03-22T03:01:24;55.17;;;22.20;;
75220;SDS011;63802;53.232;6.570;2024-03-22T03:03:52;55.03;;;20.65;;
75220;SDS011;63802;53.232;6.570;2024-03-22T03:06:25;49.25;;;21.30;;
75220;SDS011;63802;53.232;6.570;2024-03-22T03:08:51;58.50;;;22.05;;
75220;SDS011;63802;53.232;6.570;2024-03-22T03:11:17;51.25;;;20.35;;
75220;SDS011;63802;53.232;6.570;2024-03-22T03:18:49;60.78;;;22.35;;
75220;SDS011;63802;53.232;6.570;2024-03-22T03:21:25;66.30;;;21.98;;
75220;SDS011;63802;53.232;6.570;2024-03-22T03:23:54;61.72;;;22.33;;
75220;SDS011;63802;53.232;6.570;2024-03-22T03:26:37;55.97;;;21.63;;
75220;SDS011;63802;53.232;6.570;2024-03-22T03:29:03;59.17;;;21.77;;
75220;SDS011;63802;53.232;6.570;2024-03-22T03:31:32;54.90;;;21.92;;
75220;SDS011;63802;53.232;6.570;2024-03-22T03:33:57;60.83;;;21.25;;
75220;SDS011;63802;53.232;6.570;2024-03-22T03:36:28;56.25;;;22.17;;
75220;SDS011;63802;53.232;6.570;2024-03-22T03:38:57;60.78;;;22.48;;
75220;SDS011;63802;53.232;6.570;2024-03-22T03:41:22;61.67;;;22.27;;
75220;SDS011;63802;53.232;6.570;2024-03-22T03:43:48;65.57;;;23.85;;
75220;SDS011;63802;53.232;6.570;2024-03-22T03:46:13;63.10;;;22.40;;
75220;SDS011;63802;53.232;6.570;2024-03-22T03:48:43;62.08;;;23.05;;
75220;SDS011;63802;53.232;6.570;2024-03-22T03:51:09;57.20;;;22.38;;
75220;SDS011;63802;53.232;6.570;2024-03-22T03:53:35;53.83;;;21.38;;
75220;SDS011;63802;53.232;6.570;2024-03-22T03:56:07;62.00;;;22.58;;
75220;SDS011;63802;53.232;6.570;2024-03-22T03:58:37;58.78;;;21.80;;
75220;SDS011;63802;53.232;6.570;2024-03-22T04:01:06;64.00;;;22.17;;
75220;SDS011;63802;53.232;6.570;2024-03-22T04:03:34;59.97;;;22.20;;
75220;SDS011;63802;53.232;6.570;2024-03-22T04:06:09;64.97;;;22.33;;
75220;SDS011;63802;53.232;6.570;2024-03-22T04:08:38;61.63;;;22.20;;
75220;SDS011;63802;53.232;6.570;2024-03-22T04:11:04;56.67;;;20.95;;
75220;SDS011;63802;53.232;6.570;2024-03-22T04:13:33;57.05;;;20.15;;
75220;SDS011;63802;53.232;6.570;2024-03-22T04:16:01;59.20;;;21.50;;
75220;SDS011;63802;53.232;6.570;2024-03-22T04:18:27;57.30;;;21.08;;
75220;SDS011;63802;53.232;6.570;2024-03-22T04:20:55;53.28;;;19.83;;
75220;SDS011;63802;53.232;6.570;2024-03-22T04:23:28;62.20;;;21.25;;
75220;SDS011;63802;53.232;6.570;2024-03-22T04:25:54;59.60;;;21.50;;
75220;SDS011;63802;53.232;6.570;2024-03-22T04:28:25;56.63;;;20.52;;
75220;SDS011;63802;53.232;6.570;2024-03-22T04:30:55;63.92;;;21.23;;
75220;SDS011;63802;53.232;6.570;2024-03-22T04:33:26;53.72;;;21.35;;
75220;SDS011;63802;53.232;6.570;2024-03-22T04:38:27;54.80;;;19.85;;
75220;SDS011;63802;53.232;6.570;2024-03-22T04:40:58;55.33;;;19.88;;
75220;SDS011;63802;53.232;6.570;2024-03-22T04:43:27;62.90;;;20.85;;
75220;SDS011;63802;53.232;6.570;2024-03-22T04:45:53;60.55;;;20.67;;
75220;SDS011;63802;53.232;6.570;2024-03-22T04:48:19;56.03;;;19.20;;
75220;SDS011;63802;53.232;6.570;2024-03-22T04:50:50;56.65;;;20.00;;
75220;SDS011;63802;53.232;6.570;2024-03-22T04:53:22;56.13;;;21.67;;
75220;SDS011;63802;53.232;6.570;2024-03-22T04:55:51;53.90;;;20.95;;
75220;SDS011;63802;53.232;6.570;2024-03-22T04:58:20;60.33;;;20.53;;
75220;SDS011;63802;53.232;6.570;2024-03-22T05:00:47;58.53;;;20.17;;
75220;SDS011;63802;53.232;6.570;2024-03-22T05:03:14;54.28;;;19.75;;
75220;SDS011;63802;53.232;6.570;2024-03-22T05:05:43;49.08;;;19.35;;
75220;SDS011;63802;53.232;6.570;2024-03-22T05:08:08;50.25;;;20.08;;
75220;SDS011;63802;53.232;6.570;2024-03-22T05:10:34;53.15;;;19.38;;
75220;SDS011;63802;53.232;6.570;2024-03-22T05:13:01;50.75;;;18.90;;
75220;SDS011;63802;53.232;6.570;2024-03-22T05:15:31;57.50;;;19.40;;
75220;SDS011;63802;53.232;6.570;2024-03-22T05:18:02;56.22;;;19.98;;
75220;SDS011;63802;53.232;6.570;2024-03-22T05:20:42;55.25;;;18.63;;
75220;SDS011;63802;53.232;6.570;2024-03-22T05:25:37;54.10;;;18.70;;
75220;SDS011;63802;53.232;6.570;2024-03-22T05:28:04;53.58;;;18.42;;
75220;SDS011;63802;53.232;6.570;2024-03-22T05:30:30;43.45;;;18.50;;
75220;SDS011;63802;53.232;6.570;2024-03-22T05:33:03;48.40;;;19.23;;
75220;SDS011;63802;53.232;6.570;2024-03-22T05:35:36;48.00;;;18.63;;
75220;SDS011;63802;53.232;6.570;2024-03-22T05:38:06;47.72;;;18.23;;
75220;SDS011;63802;53.232;6.570;2024-03-22T05:40:33;49.95;;;17.33;;
75220;SDS011;63802;53.232;6.570;2024-03-22T05:43:06;46.28;;;17.98;;
75220;SDS011;63802;53.232;6.570;2024-03-22T05:45:35;41.47;;;17.15;;
75220;SDS011;63802;53.232;6.570;2024-03-22T05:48:01;42.00;;;16.77;;
75220;SDS011;63802;53.232;6.570;2024-03-22T05:50:27;49.65;;;18.05;;
75220;SDS011;63802;53.232;6.570;2024-03-22T05:52:53;46.35;;;17.13;;
75220;SDS011;63802;53.232;6.570;2024-03-22T05:55:22;47.30;;;17.00;;
75220;SDS011;63802;53.232;6.570;2024-03-22T05:57:52;47.13;;;17.00;;
75220;SDS011;63802;53.232;6.570;2024-03-22T06:00:21;46.17;;;17.00;;
75220;SDS011;63802;53.232;6.570;2024-03-22T06:02:49;40.67;;;16.67;;
75220;SDS011;63802;53.232;6.570;2024-03-22T06:05:21;47.88;;;16.80;;
75220;SDS011;63802;53.232;6.570;2024-03-22T06:07:50;48.95;;;16.95;;
75220;SDS011;63802;53.232;6.570;2024-03-22T06:10:44;43.47;;;16.70;;
75220;SDS011;63802;53.232;6.570;2024-03-22T06:16:02;43.92;;;15.40;;
75220;SDS011;63802;53.232;6.570;2024-03-22T06:18:43;44.13;;;15.63;;
75220;SDS011;63802;53.232;6.570;2024-03-22T06:21:09;43.58;;;15.48;;
75220;SDS011;63802;53.232;6.570;2024-03-22T06:23:40;41.63;;;15.52;;
75220;SDS011;63802;53.232;6.570;2024-03-22T06:26:15;43.92;;;15.80;;
75220;SDS011;63802;53.232;6.570;2024-03-22T06:28:56;37.85;;;14.43;;
75220;SDS011;63802;53.232;6.570;2024-03-22T06:31:46;34.58;;;14.50;;
75220;SDS011;63802;53.232;6.570;2024-03-22T06:34:13;36.65;;;13.70;;
75220;SDS011;63802;53.232;6.570;2024-03-22T06:36:47;35.08;;;13.38;;
75220;SDS011;63802;53.232;6.570;2024-03-22T06:39:20;33.28;;;12.38;;
75220;SDS011;63802;53.232;6.570;2024-03-22T06:41:49;35.92;;;13.07;;
75220;SDS011;63802;53.232;6.570;2024-03-22T06:44:18;40.67;;;12.57;;
75220;SDS011;63802;53.232;6.570;2024-03-22T06:46:44;29.30;;;11.73;;
75220;SDS011;63802;53.232;6.570;2024-03-22T06:49:10;38.67;;;13.95;;
75220;SDS011;63802;53.232;6.570;2024-03-22T06:51:36;35.45;;;12.75;;
75220;SDS011;63802;53.232;6.570;2024-03-22T06:54:08;34.80;;;11.40;;
75220;SDS011;63802;53.232;6.570;2024-03-22T06:56:40;35.25;;;12.48;;
75220;SDS011;63802;53.232;6.570;2024-03-22T06:59:13;31.40;;;11.85;;
75220;SDS011;63802;53.232;6.570;2024-03-22T07:02:05;33.20;;;11.07;;
75220;SDS011;63802;53.232;6.570;2024-03-22T07:04:34;40.00;;;11.85;;
75220;SDS011;63802;53.232;6.570;2024-03-22T07:07:08;28.77;;;10.07;;
75220;SDS011;63802;53.232;6.570;2024-03-22T07:09:34;25.38;;;9.75;;
75220;SDS011;63802;53.232;6.570;2024-03-22T07:12:04;27.92;;;10.70;;
75220;SDS011;63802;53.232;6.570;2024-03-22T07:16:58;30.02;;;10.15;;
75220;SDS011;63802;53.232;6.570;2024-03-22T07:19:30;27.42;;;10.73;;
75220;SDS011;63802;53.232;6.570;2024-03-22T07:22:07;28.30;;;10.48;;
75220;SDS011;63802;53.232;6.570;2024-03-22T07:29:48;29.45;;;10.38;;
75220;SDS011;63802;53.232;6.570;2024-03-22T07:35:08;33.45;;;10.85;;
75220;SDS011;63802;53.232;6.570;2024-03-22T07:37:38;34.20;;;11.18;;
75220;SDS011;63802;53.232;6.570;2024-03-22T07:40:06;28.23;;;11.30;;
75220;SDS011;63802;53.232;6.570;2024-03-22T07:42:33;38.50;;;11.50;;
75220;SDS011;63802;53.232;6.570;2024-03-22T07:44:59;25.75;;;9.88;;
75220;SDS011;63802;53.232;6.570;2024-03-22T07:47:29;24.85;;;9.52;;
75220;SDS011;63802;53.232;6.570;2024-03-22T07:49:58;24.73;;;9.80;;
75220;SDS011;63802;53.232;6.570;2024-03-22T07:52:34;28.42;;;10.27;;
75220;SDS011;63802;53.232;6.570;2024-03-22T07:55:16;26.55;;;10.52;;
75220;SDS011;63802;53.232;6.570;2024-03-22T08:00:48;23.50;;;9.80;;
75220;SDS011;63802;53.232;6.570;2024-03-22T08:03:16;23.73;;;9.52;;
75220;SDS011;63802;53.232;6.570;2024-03-22T08:06:06;20.40;;;8.98;;
75220;SDS011;63802;53.232;6.570;2024-03-22T08:08:34;23.40;;;9.48;;
75220;SDS011;63802;53.232;6.570;2024-03-22T08:11:03;21.98;;;8.25;;
75220;SDS011;63802;53.232;6.570;2024-03-22T08:13:32;27.02;;;9.45;;
75220;SDS011;63802;53.232;6.570;2024-03-22T08:16:07;21.00;;;9.50;;
75220;SDS011;63802;53.232;6.570;2024-03-22T08:18:36;24.27;;;9.02;;
75220;SDS011;63802;53.232;6.570;2024-03-22T08:21:08;23.67;;;9.20;;
75220;SDS011;63802;53.232;6.570;2024-03-22T08:23:38;26.42;;;8.48;;
75220;SDS011;63802;53.232;6.570;2024-03-22T08:26:35;25.35;;;8.68;;
75220;SDS011;63802;53.232;6.570;2024-03-22T08:29:09;22.85;;;8.43;;
75220;SDS011;63802;53.232;6.570;2024-03-22T08:31:42;23.80;;;8.45;;
75220;SDS011;63802;53.232;6.570;2024-03-22T08:39:14;21.95;;;8.50;;
75220;SDS011;63802;53.232;6.570;2024-03-22T08:41:44;17.58;;;7.28;;
75220;SDS011;63802;53.232;6.570;2024-03-22T08:44:22;19.58;;;7.63;;
75220;SDS011;63802;53.232;6.570;2024-03-22T08:46:54;16.35;;;6.93;;
75220;SDS011;63802;53.232;6.570;2024-03-22T08:49:27;17.05;;;7.05;;
75220;SDS011;63802;53.232;6.570;2024-03-22T08:51:56;19.20;;;7.82;;
75220;SDS011;63802;53.232;6.570;2024-03-22T08:54:34;17.55;;;6.70;;
75220;SDS011;63802;53.232;6.570;2024-03-22T08:57:18;17.98;;;6.70;;
75220;SDS011;63802;53.232;6.570;2024-03-22T08:59:50;16.73;;;7.03;;
75220;SDS011;63802;53.232;6.570;2024-03-22T09:02:29;16.77;;;6.32;;
75220;SDS011;63802;53.232;6.570;2024-03-22T09:04:59;15.95;;;6.80;;
75220;SDS011;63802;53.232;6.570;2024-03-22T09:13:16;11.95;;;5.38;;
75220;SDS011;63802;53.232;6.570;2024-03-22T09:16:19;17.00;;;6.55;;
75220;SDS011;63802;53.232;6.570;2024-03-22T09:19:09;15.75;;;5.53;;
75220;SDS011;63802;53.232;6.570;2024-03-22T09:21:36;16.55;;;5.80;;
75220;SDS011;63802;53.232;6.570;2024-03-22T09:24:05;14.73;;;6.13;;
75220;SDS011;63802;53.232;6.570;2024-03-22T09:29:08;12.07;;;5.20;;
75220;SDS011;63802;53.232;6.570;2024-03-22T09:31:35;13.48;;;5.50;;
75220;SDS011;63802;53.232;6.570;2024-03-22T09:34:09;13.60;;;5.65;;
75220;SDS011;63802;53.232;6.570;2024-03-22T09:36:49;12.90;;;5.57;;
75220;SDS011;63802;53.232;6.570;2024-03-22T09:41:57;11.93;;;5.10;;
75220;SDS011;63802;53.232;6.570;2024-03-22T09:44:31;14.82;;;6.40;;
75220;SDS011;63802;53.232;6.570;2024-03-22T09:47:05;15.43;;;5.85;;
75220;SDS011;63802;53.232;6.570;2024-03-22T09:49:33;12.70;;;5.85;;
75220;SDS011;63802;53.232;6.570;2024-03-22T09:52:02;13.15;;;5.68;;
75220;SDS011;63802;53.232;6.570;2024-03-22T09:54:35;12.48;;;5.25;;
75220;SDS011;63802;53.232;6.570;2024-03-22T09:57:21;12.73;;;6.10;;
75220;SDS011;63802;53.232;6.570;2024-03-22T09:59:52;11.02;;;5.18;;
75220;SDS011;63802;53.232;6.570;2024-03-22T10:02:22;11.48;;;6.20;;
75220;SDS011;63802;53.232;6.570;2024-03-22T10:04:56;11.07;;;4.47;;
75220;SDS011;63802;53.232;6.570;2024-03-22T10:07:32;10.80;;;5.20;;
75220;SDS011;63802;53.232;6.570;2024-03-22T10:10:06;10.98;;;4.65;;
75220;SDS011;63802;53.232;6.570;2024-03-22T10:15:28;9.32;;;4.32;;
75220;SDS011;63802;53.232;6.570;2024-03-22T10:17:56;7.65;;;3.53;;
75220;SDS011;63802;53.232;6.570;2024-03-22T10:23:04;9.32;;;3.50;;
75220;SDS011;63802;53.232;6.570;2024-03-22T10:25:33;7.80;;;3.35;;
75220;SDS011;63802;53.232;6.570;2024-03-22T10:28:02;9.32;;;3.75;;
75220;SDS011;63802;53.232;6.570;2024-03-22T10:30:29;9.65;;;4.10;;
75220;SDS011;63802;53.232;6.570;2024-03-22T10:32:56;7.60;;;3.42;;
75220;SDS011;63802;53.232;6.570;2024-03-22T10:38:05;9.05;;;3.47;;
75220;SDS011;63802;53.232;6.570;2024-03-22T10:40:43;9.43;;;3.67;;
75220;SDS011;63802;53.232;6.570;2024-03-22T10:43:31;6.20;;;3.08;;
75220;SDS011;63802;53.232;6.570;2024-03-22T10:46:01;8.52;;;2.85;;
75220;SDS011;63802;53.232;6.570;2024-03-22T10:48:29;7.07;;;3.10;;
75220;SDS011;63802;53.232;6.570;2024-03-22T10:51:00;5.80;;;2.72;;
75220;SDS011;63802;53.232;6.570;2024-03-22T10:56:21;6.38;;;2.55;;
75220;SDS011;63802;53.232;6.570;2024-03-22T10:58:49;4.97;;;2.40;;
75220;SDS011;63802;53.232;6.570;2024-03-22T11:01:22;3.92;;;2.22;;
75220;SDS011;63802;53.232;6.570;2024-03-22T11:04:12;5.35;;;2.42;;
75220;SDS011;63802;53.232;6.570;2024-03-22T11:06:49;5.35;;;2.00;;
75220;SDS011;63802;53.232;6.570;2024-03-22T11:09:24;4.13;;;2.30;;
75220;SDS011;63802;53.232;6.570;2024-03-22T11:11:53;3.35;;;2.35;;
75220;SDS011;63802;53.232;6.570;2024-03-22T11:14:24;4.25;;;2.10;;
75220;SDS011;63802;53.232;6.570;2024-03-22T11:16:50;4.45;;;2.00;;
75220;SDS011;63802;53.232;6.570;2024-03-22T11:19:27;4.82;;;2.40;;
75220;SDS011;63802;53.232;6.570;2024-03-22T11:22:04;4.38;;;2.30;;
75220;SDS011;63802;53.232;6.570;2024-03-22T11:24:39;4.22;;;2.15;;
75220;SDS011;63802;53.232;6.570;2024-03-22T11:27:10;6.45;;;2.15;;
75220;SDS011;63802;53.232;6.570;2024-03-22T11:29:37;5.07;;;2.30;;
75220;SDS011;63802;53.232;6.570;2024-03-22T11:34:40;5.22;;;2.33;;
75220;SDS011;63802;53.232;6.570;2024-03-22T11:37:15;4.90;;;2.20;;
75220;SDS011;63802;53.232;6.570;2024-03-22T11:39:40;5.10;;;2.63;;
75220;SDS011;63802;53.232;6.570;2024-03-22T11:42:09;5.20;;;2.55;;
75220;SDS011;63802;53.232;6.570;2024-03-22T11:44:39;5.80;;;2.30;;
75220;SDS011;63802;53.232;6.570;2024-03-22T11:47:05;8.23;;;2.75;;
75220;SDS011;63802;53.232;6.570;2024-03-22T11:49:32;6.47;;;2.28;;
75220;SDS011;63802;53.232;6.570;2024-03-22T11:52:00;4.07;;;2.42;;
75220;SDS011;63802;53.232;6.570;2024-03-22T11:54:29;6.05;;;2.28;;
75220;SDS011;63802;53.232;6.570;2024-03-22T11:56:56;6.07;;;2.30;;
75220;SDS011;63802;53.232;6.570;2024-03-22T11:59:29;5.65;;;2.20;;
75220;SDS011;63802;53.232;6.570;2024-03-22T12:02:01;5.05;;;1.80;;
75220;SDS011;63802;53.232;6.570;2024-03-22T12:04:29;6.13;;;1.90;;
75220;SDS011;63802;53.232;6.570;2024-03-22T12:07:15;7.70;;;2.22;;
75220;SDS011;63802;53.232;6.570;2024-03-22T12:09:45;9.30;;;2.30;;
75220;SDS011;63802;53.232;6.570;2024-03-22T12:12:14;11.38;;;2.80;;
75220;SDS011;63802;53.232;6.570;2024-03-22T12:14:43;16.05;;;3.15;;
75220;SDS011;63802;53.232;6.570;2024-03-22T12:17:29;8.73;;;2.60;;
75220;SDS011;63802;53.232;6.570;2024-03-22T12:19:59;11.63;;;2.78;;
75220;SDS011;63802;53.232;6.570;2024-03-22T12:22:30;10.30;;;2.97;;
75220;SDS011;63802;53.232;6.570;2024-03-22T12:27:56;9.13;;;2.40;;
75220;SDS011;63802;53.232;6.570;2024-03-22T12:33:36;12.75;;;2.78;;
75220;SDS011;63802;53.232;6.570;2024-03-22T12:36:22;10.93;;;2.50;;
75220;SDS011;63802;53.232;6.570;2024-03-22T12:38:54;9.50;;;2.72;;
75220;SDS011;63802;53.232;6.570;2024-03-22T12:41:26;7.93;;;2.60;;
75220;SDS011;63802;53.232;6.570;2024-03-22T12:44:02;5.60;;;2.25;;
75220;SDS011;63802;53.232;6.570;2024-03-22T12:46:32;4.85;;;2.75;;
75220;SDS011;63802;53.232;6.570;2024-03-22T12:48:58;9.18;;;3.00;;
75220;SDS011;63802;53.232;6.570;2024-03-22T12:51:52;8.15;;;3.05;;
75220;SDS011;63802;53.232;6.570;2024-03-22T12:54:18;9.00;;;3.30;;
75220;SDS011;63802;53.232;6.570;2024-03-22T12:56:45;7.68;;;3.40;;
75220;SDS011;63802;53.232;6.570;2024-03-22T12:59:13;9.63;;;2.80;;
75220;SDS011;63802;53.232;6.570;2024-03-22T13:01:46;9.63;;;3.25;;
75220;SDS011;63802;53.232;6.570;2024-03-22T13:04:15;10.18;;;3.33;;
75220;SDS011;63802;53.232;6.570;2024-03-22T13:06:45;7.57;;;3.28;;
75220;SDS011;63802;53.232;6.570;2024-03-22T13:09:15;10.65;;;3.50;;
75220;SDS011;63802;53.232;6.570;2024-03-22T13:14:53;17.40;;;3.70;;
75220;SDS011;63802;53.232;6.570;2024-03-22T13:17:23;12.45;;;4.00;;
75220;SDS011;63802;53.232;6.570;2024-03-22T13:22:21;10.05;;;3.15;;
75220;SDS011;63802;53.232;6.570;2024-03-22T13:24:57;10.88;;;3.33;;
75220;SDS011;63802;53.232;6.570;2024-03-22T13:27:37;11.00;;;3.40;;
75220;SDS011;63802;53.232;6.570;2024-03-22T13:32:45;16.48;;;3.63;;
75220;SDS011;63802;53.232;6.570;2024-03-22T13:38:22;12.52;;;3.63;;
75220;SDS011;63802;53.232;6.570;2024-03-22T13:40:58;11.52;;;3.45;;
75220;SDS011;63802;53.232;6.570;2024-03-22T13:43:29;12.02;;;3.70;;
75220;SDS011;63802;53.232;6.570;2024-03-22T13:46:09;17.33;;;4.20;;
75220;SDS011;63802;53.232;6.570;2024-03-22T13:48:40;11.23;;;3.53;;
75220;SDS011;63802;53.232;6.570;2024-03-22T14:19:47;12.65;;;4.32;;
75220;SDS011;63802;53.232;6.570;2024-03-22T14:22:22;16.52;;;3.83;;
75220;SDS011;63802;53.232;6.570;2024-03-22T14:27:58;11.77;;;3.53;;
75220;SDS011;63802;53.232;6.570;2024-03-22T14:31:20;11.00;;;3.45;;
75220;SDS011;63802;53.232;6.570;2024-03-22T14:33:55;15.27;;;4.15;;
75220;SDS011;63802;53.232;6.570;2024-03-22T14:39:49;13.90;;;3.60;;
75220;SDS011;63802;53.232;6.570;2024-03-22T14:45:47;15.75;;;4.03;;
75220;SDS011;63802;53.232;6.570;2024-03-22T14:48:14;17.77;;;2.70;;
75220;SDS011;63802;53.232;6.570;2024-03-22T14:50:43;12.98;;;3.53;;
75220;SDS011;63802;53.232;6.570;2024-03-22T14:56:33;10.90;;;3.28;;
75220;SDS011;63802;53.232;6.570;2024-03-22T15:02:46;18.90;;;3.30;;
75220;SDS011;63802;53.232;6.570;2024-03-22T15:05:21;14.57;;;2.60;;
75220;SDS011;63802;53.232;6.570;2024-03-22T15:08:05;19.73;;;2.92;;
75220;SDS011;63802;53.232;6.570;2024-03-22T15:13:42;6.28;;;2.22;;
75220;SDS011;63802;53.232;6.570;2024-03-22T16:19:59;18.73;;;4.32;;
75220;SDS011;63802;53.232;6.570;2024-03-22T16:22:40;11.98;;;3.47;;
75220;SDS011;63802;53.232;6.570;2024-03-22T16:25:13;14.23;;;2.55;;
75220;SDS011;63802;53.232;6.570;2024-03-22T16:27:46;11.93;;;2.90;;
75220;SDS011;63802;53.232;6.570;2024-03-22T16:30:27;18.60;;;2.92;;
75220;SDS011;63802;53.232;6.570;2024-03-22T16:36:02;21.20;;;3.03;;
75220;SDS011;63802;53.232;6.570;2024-03-22T16:38:36;18.23;;;2.75;;
75220;SDS011;63802;53.232;6.570;2024-03-22T16:41:17;14.52;;;3.00;;
75220;SDS011;63802;53.232;6.570;2024-03-22T16:43:49;12.88;;;2.33;;
75220;SDS011;63802;53.232;6.570;2024-03-22T16:46:32;21.13;;;2.92;;
75220;SDS011;63802;53.232;6.570;2024-03-22T16:49:31;14.40;;;3.05;;
75220;SDS011;63802;53.232;6.570;2024-03-22T16:52:09;17.52;;;3.15;;
75220;SDS011;63802;53.232;6.570;2024-03-22T16:54:48;9.52;;;2.13;;
75220;SDS011;63802;53.232;6.570;2024-03-22T16:57:46;17.00;;;3.08;;
75220;SDS011;63802;53.232;6.570;2024-03-22T17:00:34;18.35;;;2.97;;
75220;SDS011;63802;53.232;6.570;2024-03-22T17:03:05;18.50;;;2.88;;
75220;SDS011;63802;53.232;6.570;2024-03-22T17:06:19;16.35;;;2.40;;
75220;SDS011;63802;53.232;6.570;2024-03-22T17:08:58;16.00;;;3.17;;
75220;SDS011;63802;53.232;6.570;2024-03-22T17:11:40;22.20;;;3.25;;
75220;SDS011;63802;53.232;6.570;2024-03-22T17:14:17;12.50;;;2.42;;
75220;SDS011;63802;53.232;6.570;2024-03-22T17:17:39;18.55;;;3.65;;
75220;SDS011;63802;53.232;6.570;2024-03-22T17:20:27;17.08;;;2.40;;
75220;SDS011;63802;53.232;6.570;2024-03-22T17:23:23;17.58;;;2.33;;
75220;SDS011;63802;53.232;6.570;2024-03-22T17:26:11;13.85;;;2.22;;
75220;SDS011;63802;53.232;6.570;2024-03-22T17:28:43;14.68;;;2.10;;
75220;SDS011;63802;53.232;6.570;2024-03-22T17:31:16;15.38;;;2.42;;
75220;SDS011;63802;53.232;6.570;2024-03-22T17:34:05;19.02;;;2.60;;
75220;SDS011;63802;53.232;6.570;2024-03-22T17:37:03;13.43;;;2.42;;
75220;SDS011;63802;53.232;6.570;2024-03-22T17:46:57;13.90;;;2.47;;
75220;SDS011;63802;53.232;6.570;2024-03-22T17:53:55;7.40;;;1.75;;
75220;SDS011;63802;53.232;6.570;2024-03-22T17:56:42;14.05;;;2.50;;
75220;SDS011;63802;53.232;6.570;2024-03-22T17:59:55;16.05;;;2.63;;
75220;SDS011;63802;53.232;6.570;2024-03-22T18:03:04;12.50;;;2.13;;
75220;SDS011;63802;53.232;6.570;2024-03-22T18:05:56;16.67;;;2.00;;
75220;SDS011;63802;53.232;6.570;2024-03-22T18:09:29;12.77;;;2.55;;
75220;SDS011;63802;53.232;6.570;2024-03-22T18:16:28;10.80;;;2.17;;
75220;SDS011;63802;53.232;6.570;2024-03-22T18:42:44;17.52;;;3.38;;
75220;SDS011;63802;53.232;6.570;2024-03-22T18:45:13;13.65;;;3.00;;
75220;SDS011;63802;53.232;6.570;2024-03-22T18:57:14;14.90;;;2.63;;
75220;SDS011;63802;53.232;6.570;2024-03-22T19:03:43;25.10;;;3.30;;
75220;SDS011;63802;53.232;6.570;2024-03-22T19:10:09;14.20;;;2.45;;
75220;SDS011;63802;53.232;6.570;2024-03-22T19:16:34;17.20;;;3.33;;